createdAt,value
2019-01-03T19:54:27.998Z,8.60
2019-01-03T21:05:01.990Z,3.00
2019-01-03T21:06:01.899Z,7.40
2019-01-03T21:07:01.920Z,15.80
2019-01-03T21:08:01.925Z,10.20
2019-01-03T21:09:01.739Z,5.80
2019-01-03T21:10:01.761Z,9.60
2019-01-03T21:11:01.919Z,6.00
2019-01-03T21:12:01.708Z,7.90
2019-01-03T21:13:01.666Z,12.00
2019-01-03T21:14:01.677Z,14.60
2019-01-03T21:15:01.650Z,5.00
2019-01-03T21:16:01.691Z,3.80
2019-01-03T21:17:01.678Z,4.60
2019-01-03T21:18:01.567Z,12.90
2019-01-03T21:19:01.856Z,2.70
2019-01-03T21:20:01.888Z,3.10
2019-01-03T21:21:01.615Z,6.60
2019-01-03T21:22:01.641Z,5.40
2019-01-03T21:23:01.469Z,7.40
2019-01-03T21:24:01.472Z,11.80
2019-01-03T21:25:02.289Z,5.70
2019-01-03T21:26:01.459Z,4.10
2019-01-03T21:28:01.449Z,8.40
2019-01-03T21:29:01.353Z,14.90
2019-01-03T21:30:01.441Z,5.30
2019-01-03T21:31:01.313Z,7.10
2019-01-03T21:32:01.321Z,7.00
2019-01-03T21:33:01.347Z,4.70
2019-01-03T21:34:01.244Z,4.00
2019-01-03T21:35:01.254Z,5.30
2019-01-03T21:36:01.197Z,3.50
2019-01-03T21:37:01.384Z,17.40
2019-01-03T21:38:01.302Z,8.60
2019-01-03T21:39:01.143Z,8.90
2019-01-03T21:40:01.244Z,4.30
2019-01-03T21:41:01.109Z,5.00
2019-01-03T21:42:01.096Z,5.10
2019-01-03T21:43:01.125Z,5.90
2019-01-03T21:44:01.144Z,13.10
2019-01-03T21:45:01.022Z,4.80
2019-01-03T21:46:00.983Z,19.80
2019-01-03T21:47:01.558Z,17.30
2019-01-03T21:48:00.961Z,13.30
2019-01-03T21:49:01.302Z,16.30
2019-01-03T21:50:00.924Z,5.00
2019-01-03T21:51:00.858Z,8.60
2019-01-03T21:52:00.926Z,7.00
2019-01-03T21:53:00.815Z,6.50
2019-01-03T21:54:00.943Z,3.40
2019-01-03T21:55:00.800Z,10.30
2019-01-03T21:56:00.767Z,7.90
2019-01-03T21:57:00.774Z,6.40
2019-01-03T21:58:00.716Z,18.70
2019-01-03T21:59:00.698Z,3.60
2019-01-03T22:00:00.847Z,7.30
2019-01-03T22:01:00.668Z,6.00
2019-01-03T22:02:00.674Z,3.80
2019-01-03T22:03:00.613Z,4.80
2019-01-03T22:04:00.823Z,4.80
2019-01-03T22:05:00.712Z,2.70
2019-01-03T22:06:00.799Z,3.40
2019-01-03T22:07:00.539Z,4.60
2019-01-03T22:08:00.544Z,3.40
2019-01-03T22:09:00.473Z,10.00
2019-01-03T22:10:00.463Z,7.00
2019-01-03T22:11:00.540Z,10.70
2019-01-03T22:12:00.437Z,12.00
2019-01-03T22:13:00.524Z,10.60
2019-01-03T22:14:00.391Z,5.60
2019-01-03T22:15:00.385Z,6.50
2019-01-03T22:16:00.746Z,14.70
2019-01-03T22:17:00.428Z,14.90
2019-01-03T22:18:00.350Z,15.80
2019-01-03T22:19:00.313Z,13.20
2019-01-03T22:20:00.258Z,5.70
2019-01-03T22:21:00.386Z,6.40
2019-01-03T22:22:00.213Z,8.20
2019-01-03T22:23:00.208Z,6.30
2019-01-03T22:24:00.163Z,7.50
2019-01-03T22:25:00.161Z,5.30
2019-01-03T22:26:00.203Z,1.70
2019-01-03T22:27:00.293Z,12.30
2019-01-03T22:28:00.828Z,3.90
2019-01-03T22:29:01.937Z,9.40
2019-01-03T22:30:00.969Z,16.40
2019-01-03T22:31:00.419Z,8.10
2019-01-03T22:32:00.063Z,5.60
2019-01-03T22:33:00.417Z,14.10
2019-01-03T22:33:59.950Z,5.40
2019-01-03T22:35:00.350Z,13.20
2019-01-03T22:36:00.080Z,6.90
2019-01-03T22:37:00.476Z,4.00
2019-01-03T22:38:00.490Z,6.40
2019-01-03T22:38:59.914Z,5.40
2019-01-03T22:39:59.845Z,12.80
2019-01-03T22:40:59.829Z,3.30
2019-01-03T22:42:00.156Z,3.30
2019-01-03T22:43:00.343Z,4.80
2019-01-03T22:43:59.875Z,8.10
2019-01-03T22:44:59.733Z,6.70
2019-01-03T22:45:59.755Z,4.90
2019-01-03T22:46:59.705Z,4.40
2019-01-03T22:48:00.021Z,6.40
2019-01-03T22:48:59.724Z,3.10
2019-01-03T22:49:59.641Z,8.00
2019-01-03T22:50:59.906Z,16.60
2019-01-03T22:52:00.403Z,10.30
2019-01-03T22:52:59.795Z,15.00
2019-01-03T22:53:59.654Z,4.00
2019-01-03T22:54:59.704Z,10.60
2019-01-03T22:55:59.514Z,6.20
2019-01-03T22:56:59.741Z,3.90
2019-01-03T22:57:59.405Z,6.70
2019-01-03T22:58:59.443Z,7.60
2019-01-03T22:59:59.474Z,6.30
2019-01-03T23:00:59.460Z,11.20
2019-01-03T23:01:59.409Z,15.10
2019-01-03T23:02:59.288Z,4.40
2019-01-03T23:03:59.287Z,7.30
2019-01-03T23:04:59.285Z,9.10
2019-01-03T23:05:59.326Z,19.30
2019-01-03T23:06:59.224Z,10.00
2019-01-03T23:07:59.202Z,8.70
2019-01-03T23:08:59.172Z,9.10
2019-01-03T23:09:59.211Z,5.50
2019-01-03T23:10:59.217Z,15.90
2019-01-03T23:11:59.120Z,4.50
2019-01-03T23:12:59.074Z,8.10
2019-01-03T23:13:59.216Z,11.00
2019-01-03T23:14:59.055Z,10.90
2019-01-03T23:15:59.282Z,13.60
2019-01-03T23:16:59.009Z,23.10
2019-01-03T23:17:59.076Z,20.60
2019-01-03T23:18:59.054Z,11.80
2019-01-03T23:19:59.310Z,16.80
2019-01-03T23:21:00.845Z,21.70
2019-01-03T23:21:58.950Z,25.10
2019-01-03T23:22:58.909Z,26.50
2019-01-03T23:24:00.202Z,32.10
2019-01-03T23:24:58.819Z,33.70
2019-01-03T23:25:58.892Z,34.00
2019-01-03T23:26:58.953Z,34.10
2019-01-03T23:27:58.808Z,53.10
2019-01-03T23:28:58.725Z,27.30
2019-01-03T23:29:58.685Z,30.40
2019-01-03T23:30:58.676Z,38.70
2019-01-03T23:31:58.792Z,21.20
2019-01-03T23:32:58.676Z,36.60
2019-01-03T23:33:58.791Z,24.60
2019-01-03T23:34:58.613Z,49.60
2019-01-03T23:35:58.834Z,90.40
2019-01-03T23:36:58.776Z,83.80
2019-01-03T23:37:58.514Z,95.70
2019-01-03T23:38:58.513Z,69.90
2019-01-03T23:39:58.464Z,48.30
2019-01-03T23:40:58.524Z,54.00
2019-01-03T23:41:58.409Z,43.20
2019-01-03T23:42:58.454Z,49.40
2019-01-03T23:43:59.212Z,60.40
2019-01-03T23:44:58.800Z,61.80
2019-01-03T23:47:59.132Z,39.30
2019-01-03T23:51:58.594Z,20.80
2019-01-03T23:52:59.261Z,31.30
2019-01-03T23:53:58.224Z,33.90
2019-01-03T23:54:58.101Z,26.10
2019-01-03T23:55:58.089Z,19.90
2019-01-03T23:56:58.081Z,41.60
2019-01-03T23:57:58.115Z,38.40
2019-01-03T23:58:58.631Z,33.40
2019-01-03T23:59:57.999Z,28.20
